createdAt,value
2023-03-26T00:01:24.366Z,4.65
2023-03-26T00:03:58.095Z,4.90
2023-03-26T00:06:36.742Z,4.60
2023-03-26T00:09:05.565Z,5.03
2023-03-26T00:11:32.408Z,4.40
2023-03-26T00:13:59.341Z,4.43
2023-03-26T00:16:29.039Z,5.00
2023-03-26T00:18:57.789Z,4.80
2023-03-26T00:21:27.846Z,5.43
2023-03-26T00:23:58.612Z,4.70
2023-03-26T00:26:26.866Z,4.18
2023-03-26T00:28:54.761Z,4.82
2023-03-26T00:31:22.168Z,4.68
2023-03-26T00:33:55.618Z,3.97
2023-03-26T00:36:25.841Z,4.90
2023-03-26T00:38:53.995Z,5.22
2023-03-26T00:41:26.476Z,4.80
2023-03-26T00:43:56.847Z,4.82
2023-03-26T00:46:25.736Z,5.28
2023-03-26T00:48:52.984Z,4.82
2023-03-26T00:51:20.845Z,6.07
2023-03-26T00:53:49.486Z,4.15
2023-03-26T00:56:17.459Z,4.60
2023-03-26T00:58:46.132Z,5.28
2023-03-26T01:01:16.585Z,4.25
2023-03-26T01:03:57.143Z,4.43
2023-03-26T01:06:36.248Z,4.82
2023-03-26T01:09:19.017Z,4.70
2023-03-26T01:11:48.835Z,5.25
2023-03-26T01:14:19.807Z,4.90
2023-03-26T01:16:52.142Z,4.78
2023-03-26T01:19:38.486Z,4.75
2023-03-26T01:22:12.042Z,5.10
2023-03-26T01:24:40.564Z,5.32
2023-03-26T01:27:39.021Z,4.97
2023-03-26T01:30:24.311Z,4.80
2023-03-26T01:32:55.736Z,5.07
2023-03-26T01:35:41.579Z,4.80
2023-03-26T01:38:29.753Z,4.80
2023-03-26T01:41:10.916Z,4.50
2023-03-26T01:43:51.357Z,5.03
2023-03-26T01:46:21.000Z,4.68
2023-03-26T01:48:48.886Z,4.95
2023-03-26T01:51:30.638Z,4.65
2023-03-26T01:53:58.505Z,4.88
2023-03-26T01:56:35.617Z,5.38
2023-03-26T01:59:37.701Z,5.05
2023-03-26T02:02:15.539Z,5.20
2023-03-26T02:04:53.016Z,4.30
2023-03-26T02:07:29.767Z,5.20
2023-03-26T02:10:00.711Z,4.32
2023-03-26T02:12:29.187Z,4.72
2023-03-26T02:14:56.020Z,4.30
2023-03-26T02:17:24.422Z,5.05
2023-03-26T02:19:51.611Z,4.47
2023-03-26T02:22:18.453Z,4.18
2023-03-26T02:24:45.885Z,5.90
2023-03-26T02:27:13.589Z,4.55
2023-03-26T02:29:41.428Z,4.78
2023-03-26T02:32:13.218Z,5.18
2023-03-26T02:34:41.162Z,4.13
2023-03-26T02:37:08.693Z,3.85
2023-03-26T02:39:36.388Z,3.90
2023-03-26T02:42:03.354Z,4.32
2023-03-26T02:44:30.465Z,4.00
2023-03-26T02:46:57.319Z,4.75
2023-03-26T02:49:24.169Z,4.28
2023-03-26T02:51:51.144Z,4.55
2023-03-26T02:54:18.413Z,4.50
2023-03-26T02:56:45.413Z,4.05
2023-03-26T02:59:12.356Z,3.60
2023-03-26T03:01:42.990Z,3.97
2023-03-26T03:04:13.310Z,3.60
2023-03-26T03:06:40.577Z,3.40
2023-03-26T03:09:11.262Z,3.65
2023-03-26T03:11:40.106Z,3.75
2023-03-26T03:14:07.397Z,3.75
2023-03-26T03:16:34.338Z,3.30
2023-03-26T03:19:01.967Z,3.47
2023-03-26T03:21:29.695Z,3.97
2023-03-26T03:23:59.983Z,3.40
2023-03-26T03:26:29.742Z,3.85
2023-03-26T03:28:57.925Z,3.28
2023-03-26T03:31:26.544Z,3.17
2023-03-26T03:33:53.682Z,3.95
2023-03-26T03:36:22.938Z,3.55
2023-03-26T03:38:50.953Z,3.25
2023-03-26T03:41:18.815Z,3.53
2023-03-26T03:43:46.273Z,3.53
2023-03-26T03:46:13.505Z,2.83
2023-03-26T03:48:41.149Z,3.65
2023-03-26T03:51:08.068Z,3.17
2023-03-26T03:53:37.390Z,3.38
2023-03-26T03:56:10.412Z,3.03
2023-03-26T03:58:37.698Z,3.13
2023-03-26T04:01:04.695Z,3.40
2023-03-26T04:03:33.083Z,3.22
2023-03-26T04:06:01.594Z,3.28
2023-03-26T04:08:28.509Z,3.90
2023-03-26T04:10:55.463Z,3.10
2023-03-26T04:13:22.538Z,2.85
2023-03-26T04:15:49.430Z,2.85
2023-03-26T04:18:16.323Z,2.80
2023-03-26T04:20:47.457Z,3.60
2023-03-26T04:23:18.558Z,2.80
2023-03-26T04:25:50.076Z,2.50
2023-03-26T04:28:30.564Z,3.00
2023-03-26T04:31:03.761Z,2.60
2023-03-26T04:33:32.892Z,2.65
2023-03-26T04:36:03.725Z,2.75
2023-03-26T04:38:33.931Z,3.40
2023-03-26T04:41:03.357Z,3.40
2023-03-26T04:43:35.584Z,2.70
2023-03-26T04:46:03.452Z,3.45
2023-03-26T04:48:30.780Z,3.50
2023-03-26T04:50:58.421Z,2.97
2023-03-26T04:53:25.497Z,2.55
2023-03-26T04:55:56.048Z,3.22
2023-03-26T04:58:30.204Z,2.60
2023-03-26T05:00:57.506Z,2.78
2023-03-26T05:03:25.777Z,3.53
2023-03-26T05:05:53.078Z,2.95
2023-03-26T05:08:20.090Z,2.97
2023-03-26T05:10:46.923Z,2.70
2023-03-26T05:13:14.008Z,3.30
2023-03-26T05:15:40.886Z,2.78
2023-03-26T05:18:08.850Z,2.80
2023-03-26T05:20:36.094Z,2.83
2023-03-26T05:23:03.008Z,2.85
2023-03-26T05:25:30.132Z,2.80
2023-03-26T05:27:56.988Z,2.85
2023-03-26T05:30:23.885Z,3.17
2023-03-26T05:32:52.008Z,3.47
2023-03-26T05:35:19.714Z,3.22
2023-03-26T05:37:48.012Z,2.70
2023-03-26T05:40:17.119Z,2.55
2023-03-26T05:42:45.607Z,2.40
2023-03-26T05:45:14.415Z,2.63
2023-03-26T05:47:41.500Z,2.95
2023-03-26T05:50:09.128Z,2.42
2023-03-26T05:52:36.112Z,2.97
2023-03-26T05:55:03.888Z,3.10
2023-03-26T05:57:31.962Z,2.42
2023-03-26T05:59:58.845Z,3.00
2023-03-26T06:02:25.715Z,2.70
2023-03-26T06:04:52.777Z,2.90
2023-03-26T06:07:20.090Z,3.05
2023-03-26T06:09:47.088Z,3.15
2023-03-26T06:12:14.739Z,3.50
2023-03-26T06:14:45.865Z,3.20
2023-03-26T06:17:12.897Z,2.85
2023-03-26T06:19:40.136Z,2.80
2023-03-26T06:22:07.014Z,3.65
2023-03-26T06:24:34.889Z,3.92
2023-03-26T06:27:01.834Z,4.45
2023-03-26T06:29:28.774Z,5.03
2023-03-26T06:31:58.127Z,4.20
2023-03-26T06:34:28.446Z,4.63
2023-03-26T06:36:55.496Z,5.10
2023-03-26T06:39:22.485Z,4.95
2023-03-26T06:41:49.412Z,4.45
2023-03-26T06:44:16.382Z,4.80
2023-03-26T06:46:43.280Z,4.65
2023-03-26T06:49:10.399Z,4.72
2023-03-26T06:51:39.320Z,4.25
2023-03-26T06:54:06.451Z,5.15
2023-03-26T06:56:33.481Z,7.13
2023-03-26T06:59:00.336Z,9.43
2023-03-26T07:01:27.267Z,8.93
2023-03-26T07:03:54.366Z,8.13
2023-03-26T07:06:21.231Z,7.32
2023-03-26T07:08:48.249Z,7.20
2023-03-26T07:11:16.793Z,7.95
2023-03-26T07:13:45.049Z,7.50
2023-03-26T07:16:12.015Z,7.18
2023-03-26T07:18:38.953Z,6.85
2023-03-26T07:21:06.302Z,5.90
2023-03-26T07:23:33.465Z,5.82
2023-03-26T07:26:10.603Z,5.20
2023-03-26T07:29:04.546Z,5.05
2023-03-26T07:32:03.536Z,4.65
2023-03-26T07:34:50.914Z,4.22
2023-03-26T07:37:33.229Z,4.18
2023-03-26T07:40:11.672Z,3.35
2023-03-26T07:43:16.527Z,3.45
2023-03-26T07:45:44.965Z,3.78
2023-03-26T07:48:21.331Z,3.13
2023-03-26T07:50:48.679Z,3.20
2023-03-26T07:53:16.134Z,3.60
2023-03-26T07:56:03.236Z,3.70
2023-03-26T07:58:53.843Z,3.60
2023-03-26T08:01:52.916Z,2.90
2023-03-26T08:04:37.380Z,2.78
2023-03-26T08:07:31.057Z,2.90
2023-03-26T08:10:07.809Z,2.97
2023-03-26T08:13:10.903Z,2.90
2023-03-26T08:16:08.992Z,2.92
2023-03-26T08:18:44.831Z,3.17
2023-03-26T08:21:33.934Z,3.08
2023-03-26T08:24:27.967Z,2.95
2023-03-26T08:27:19.503Z,2.60
2023-03-26T08:30:02.315Z,3.70
2023-03-26T08:32:29.737Z,2.92
2023-03-26T08:34:57.679Z,3.10
2023-03-26T08:37:24.630Z,3.47
2023-03-26T08:39:51.619Z,3.10
2023-03-26T08:42:57.763Z,3.33
2023-03-26T08:45:51.437Z,3.33
2023-03-26T08:48:27.283Z,2.70
2023-03-26T08:50:54.243Z,2.33
2023-03-26T08:53:38.943Z,2.28
2023-03-26T08:56:13.000Z,3.50
2023-03-26T08:59:17.287Z,3.40
2023-03-26T09:01:53.406Z,3.25
2023-03-26T09:04:48.760Z,2.88
2023-03-26T09:07:37.311Z,3.20
2023-03-26T09:10:15.980Z,2.45
2023-03-26T09:13:13.647Z,2.67
2023-03-26T09:16:10.139Z,3.15
2023-03-26T09:18:42.980Z,3.20
2023-03-26T09:21:31.712Z,2.80
2023-03-26T09:24:07.144Z,3.30
2023-03-26T09:27:06.427Z,2.85
2023-03-26T09:29:51.757Z,2.92
2023-03-26T09:32:55.077Z,2.75
2023-03-26T09:35:33.875Z,2.83
2023-03-26T09:38:31.423Z,2.53
2023-03-26T09:41:04.938Z,2.88
2023-03-26T09:43:59.344Z,2.70
2023-03-26T09:46:47.142Z,3.13
2023-03-26T09:49:28.416Z,2.33
2023-03-26T09:52:01.544Z,2.40
2023-03-26T09:54:49.378Z,2.50
2023-03-26T09:57:46.628Z,2.88
2023-03-26T10:00:28.501Z,2.58
2023-03-26T10:03:07.354Z,3.38
2023-03-26T10:06:11.752Z,3.05
2023-03-26T10:09:32.361Z,2.92
2023-03-26T10:12:22.394Z,2.90
2023-03-26T10:14:57.835Z,2.80
2023-03-26T10:17:36.971Z,2.50
2023-03-26T10:20:18.430Z,2.53
2023-03-26T10:23:14.252Z,2.72
2023-03-26T10:25:53.116Z,2.72
2023-03-26T10:28:32.055Z,2.35
2023-03-26T10:31:01.864Z,2.90
2023-03-26T10:33:47.183Z,2.78
2023-03-26T10:36:29.899Z,3.13
2023-03-26T10:39:37.721Z,3.22
2023-03-26T10:42:41.830Z,2.83
2023-03-26T10:45:14.895Z,2.58
2023-03-26T10:48:08.821Z,2.70
2023-03-26T10:51:02.727Z,2.90
2023-03-26T10:53:58.528Z,2.83
2023-03-26T10:56:32.430Z,2.83
2023-03-26T10:59:03.646Z,2.63
2023-03-26T11:01:49.007Z,3.35
2023-03-26T11:04:20.943Z,2.90
2023-03-26T11:07:24.854Z,2.63
2023-03-26T11:10:02.378Z,2.75
2023-03-26T11:13:08.012Z,3.45
2023-03-26T11:15:50.795Z,3.17
2023-03-26T11:18:23.404Z,2.78
2023-03-26T11:21:18.135Z,2.88
2023-03-26T11:24:07.145Z,2.85
2023-03-26T11:26:56.811Z,3.35
2023-03-26T11:29:42.041Z,3.17
2023-03-26T11:32:16.769Z,2.70
2023-03-26T11:35:08.384Z,3.00
2023-03-26T11:37:52.424Z,2.83
2023-03-26T11:40:42.701Z,3.22
2023-03-26T11:43:13.386Z,2.97
2023-03-26T11:45:44.980Z,2.90
2023-03-26T11:48:20.717Z,2.45
2023-03-26T11:50:57.407Z,2.92
2023-03-26T11:53:29.450Z,2.50
2023-03-26T11:56:03.578Z,2.63
2023-03-26T11:58:31.286Z,2.80
2023-03-26T12:00:59.163Z,2.22
2023-03-26T12:03:30.356Z,2.65
2023-03-26T12:05:59.689Z,3.10
2023-03-26T12:08:38.837Z,3.40
2023-03-26T12:11:12.306Z,3.38
2023-03-26T12:13:42.001Z,3.83
2023-03-26T12:16:17.999Z,3.50
2023-03-26T12:18:47.599Z,3.40
2023-03-26T12:21:18.381Z,3.50
2023-03-26T12:23:51.160Z,3.88
2023-03-26T12:26:20.817Z,3.87
2023-03-26T12:28:50.266Z,3.83
2023-03-26T12:31:19.657Z,4.60
2023-03-26T12:34:13.480Z,4.15
2023-03-26T12:36:40.706Z,4.05
2023-03-26T12:40:08.087Z,4.13
2023-03-26T12:44:55.536Z,4.32
2023-03-26T12:45:43.357Z,4.40
2023-03-26T12:48:14.091Z,4.50
2023-03-26T12:50:57.385Z,3.70
2023-03-26T12:54:03.284Z,2.95
2023-03-26T12:57:12.100Z,2.67
2023-03-26T12:59:55.859Z,2.42
2023-03-26T13:02:41.302Z,2.75
2023-03-26T13:05:35.089Z,2.40
2023-03-26T13:08:35.315Z,2.45
2023-03-26T13:11:18.076Z,2.72
2023-03-26T13:14:07.674Z,2.40
2023-03-26T13:17:01.307Z,2.55
2023-03-26T13:19:58.194Z,2.38
2023-03-26T13:22:37.859Z,2.53
2023-03-26T13:25:10.982Z,2.65
2023-03-26T13:27:52.848Z,3.35
2023-03-26T13:30:28.301Z,3.30
2023-03-26T13:33:03.808Z,3.40
2023-03-26T13:36:22.480Z,3.05
2023-03-26T13:39:14.752Z,3.25
2023-03-26T13:41:47.454Z,2.83
2023-03-26T13:44:38.484Z,2.97
2023-03-26T13:47:13.467Z,2.65
2023-03-26T13:49:59.241Z,2.88
2023-03-26T13:52:43.004Z,2.97
2023-03-26T13:55:47.584Z,3.65
2023-03-26T14:01:09.764Z,3.38
2023-03-26T14:03:42.938Z,2.58
2023-03-26T14:06:43.544Z,2.83
2023-03-26T14:09:32.092Z,2.78
2023-03-26T14:12:22.048Z,2.40
2023-03-26T14:14:59.557Z,2.53
2023-03-26T14:17:32.177Z,2.90
2023-03-26T14:20:17.594Z,2.95
2023-03-26T14:23:15.225Z,3.00
2023-03-26T14:26:01.244Z,2.95
2023-03-26T14:28:58.846Z,3.10
2023-03-26T14:31:46.584Z,2.95
2023-03-26T14:34:18.970Z,2.70
2023-03-26T14:37:06.204Z,2.50
2023-03-26T14:39:58.359Z,2.67
2023-03-26T14:42:41.039Z,3.72
2023-03-26T14:45:07.870Z,3.63
2023-03-26T14:47:49.036Z,3.10
2023-03-26T14:50:46.842Z,3.05
2023-03-26T14:53:26.958Z,3.10
2023-03-26T14:56:21.988Z,3.30
2023-03-26T14:59:24.395Z,2.90
2023-03-26T15:02:22.134Z,2.85
2023-03-26T15:05:26.509Z,2.88
2023-03-26T15:08:24.331Z,2.42
2023-03-26T15:11:24.913Z,2.67
2023-03-26T15:14:26.871Z,2.38
2023-03-26T15:17:24.309Z,2.63
2023-03-26T15:20:39.246Z,2.55
2023-03-26T15:26:07.854Z,3.42
2023-03-26T15:28:57.051Z,2.50
2023-03-26T15:31:41.072Z,3.03
2023-03-26T15:34:27.575Z,3.05
2023-03-26T15:37:15.387Z,2.78
2023-03-26T15:39:59.559Z,3.85
2023-03-26T15:43:02.591Z,3.22
2023-03-26T15:45:48.383Z,3.05
2023-03-26T15:48:39.259Z,3.60
2023-03-26T15:51:29.632Z,3.85
2023-03-26T15:53:59.468Z,3.78
2023-03-26T15:57:08.881Z,3.55
2023-03-26T15:59:58.195Z,3.22
2023-03-26T16:02:41.599Z,4.32
2023-03-26T16:05:29.661Z,3.33
2023-03-26T16:08:03.056Z,3.08
2023-03-26T16:10:58.915Z,3.35
2023-03-26T16:14:01.113Z,3.92
2023-03-26T16:16:49.600Z,3.58
2023-03-26T16:19:19.604Z,3.83
2023-03-26T16:21:55.199Z,4.00
2023-03-26T16:24:32.416Z,3.83
2023-03-26T16:27:08.183Z,3.80
2023-03-26T16:30:00.971Z,4.30
2023-03-26T16:32:29.944Z,3.80
2023-03-26T16:35:00.400Z,3.83
2023-03-26T16:37:35.685Z,3.80
2023-03-26T16:40:20.955Z,3.58
2023-03-26T16:42:48.152Z,3.80
2023-03-26T16:45:24.769Z,3.72
2023-03-26T16:48:06.936Z,3.83
2023-03-26T16:50:50.203Z,4.13
2023-03-26T16:53:33.186Z,4.20
2023-03-26T16:56:23.532Z,4.35
2023-03-26T16:58:56.322Z,3.95
2023-03-26T17:01:43.173Z,3.97
2023-03-26T17:04:20.581Z,3.80
2023-03-26T17:07:14.067Z,4.10
2023-03-26T17:10:18.189Z,3.97
2023-03-26T17:13:00.969Z,3.63
2023-03-26T17:15:46.212Z,3.80
2023-03-26T17:18:32.224Z,3.72
2023-03-26T17:21:04.465Z,3.55
2023-03-26T17:23:54.607Z,4.88
2023-03-26T17:26:44.324Z,3.40
2023-03-26T17:29:24.405Z,3.45
2023-03-26T17:32:04.686Z,3.55
2023-03-26T17:34:46.620Z,3.60
2023-03-26T17:37:16.923Z,3.08
2023-03-26T17:39:43.829Z,3.72
2023-03-26T17:42:19.056Z,3.33
2023-03-26T17:44:58.798Z,2.88
2023-03-26T17:47:43.709Z,3.80
2023-03-26T17:50:22.843Z,3.40
2023-03-26T17:53:32.066Z,3.28
2023-03-26T17:56:03.790Z,4.10
2023-03-26T17:58:44.861Z,3.53
2023-03-26T18:01:28.869Z,3.33
2023-03-26T18:04:00.589Z,3.35
2023-03-26T18:06:44.681Z,3.92
2023-03-26T18:11:56.123Z,3.00
2023-03-26T18:14:33.591Z,2.97
2023-03-26T18:17:01.677Z,3.35
2023-03-26T18:19:29.237Z,3.10
2023-03-26T18:22:03.621Z,3.60
2023-03-26T18:24:41.329Z,3.25
2023-03-26T18:27:20.792Z,3.50
2023-03-26T18:29:56.755Z,3.15
2023-03-26T18:32:33.781Z,3.45
2023-03-26T18:35:24.124Z,3.55
2023-03-26T18:37:54.273Z,3.60
2023-03-26T18:40:22.760Z,3.42
2023-03-26T18:42:55.995Z,3.03
2023-03-26T18:45:31.599Z,3.30
2023-03-26T18:48:02.166Z,3.30
2023-03-26T18:50:35.928Z,3.03
2023-03-26T18:53:05.694Z,2.97
2023-03-26T18:55:39.395Z,3.63
2023-03-26T19:01:00.627Z,3.60
2023-03-26T19:03:32.207Z,3.17
2023-03-26T19:05:59.607Z,3.45
2023-03-26T19:08:26.548Z,3.85
2023-03-26T19:10:55.460Z,3.88
2023-03-26T19:13:23.416Z,3.80
2023-03-26T19:15:52.187Z,4.47
2023-03-26T19:18:25.554Z,4.15
2023-03-26T19:21:02.128Z,4.25
2023-03-26T19:23:35.684Z,4.32
2023-03-26T19:26:08.040Z,4.43
2023-03-26T19:28:41.905Z,4.25
2023-03-26T19:33:40.150Z,3.90
2023-03-26T19:36:13.382Z,4.40
2023-03-26T19:39:10.588Z,4.25
2023-03-26T19:41:49.992Z,4.05
2023-03-26T19:44:26.384Z,3.95
2023-03-26T19:47:02.399Z,4.65
2023-03-26T19:49:41.376Z,4.25
2023-03-26T19:52:18.332Z,4.53
2023-03-26T19:55:01.356Z,4.10
2023-03-26T19:57:30.451Z,3.50
2023-03-26T19:59:57.579Z,3.67
2023-03-26T20:02:25.544Z,4.07
2023-03-26T20:04:52.793Z,3.50
2023-03-26T20:07:22.135Z,3.60
2023-03-26T20:10:04.246Z,3.33
2023-03-26T20:12:31.235Z,3.38
2023-03-26T20:14:58.067Z,3.80
2023-03-26T20:17:25.114Z,3.30
2023-03-26T20:19:54.302Z,3.03
2023-03-26T20:22:21.214Z,3.03
2023-03-26T20:24:48.166Z,3.13
2023-03-26T20:27:15.164Z,2.65
2023-03-26T20:29:42.670Z,2.72
2023-03-26T20:32:26.461Z,3.10
2023-03-26T20:34:54.185Z,2.85
2023-03-26T20:37:21.506Z,3.53
2023-03-26T20:39:48.393Z,3.22
2023-03-26T20:42:16.230Z,2.70
2023-03-26T20:44:43.660Z,2.90
2023-03-26T20:47:11.667Z,3.13
2023-03-26T20:49:38.967Z,3.05
2023-03-26T20:52:06.124Z,3.20
2023-03-26T20:54:33.257Z,3.63
2023-03-26T20:57:00.211Z,4.18
2023-03-26T20:59:28.247Z,3.30
2023-03-26T21:01:57.810Z,3.17
2023-03-26T21:04:26.240Z,3.13
2023-03-26T21:06:57.686Z,3.63
2023-03-26T21:09:35.768Z,3.63
2023-03-26T21:12:17.017Z,3.60
2023-03-26T21:14:44.362Z,3.10
2023-03-26T21:17:18.037Z,3.85
2023-03-26T21:19:46.049Z,3.80
2023-03-26T21:22:36.175Z,3.25
2023-03-26T21:25:05.984Z,3.15
2023-03-26T21:27:44.525Z,3.55
2023-03-26T21:30:14.574Z,3.13
2023-03-26T21:32:43.173Z,3.40
2023-03-26T21:35:11.530Z,3.67
2023-03-26T21:37:39.257Z,3.15
2023-03-26T21:40:15.020Z,3.55
2023-03-26T21:42:43.032Z,3.42
2023-03-26T21:45:10.749Z,3.92
2023-03-26T21:47:38.002Z,4.10
2023-03-26T21:50:06.140Z,3.75
2023-03-26T21:52:33.283Z,4.20
2023-03-26T21:55:01.541Z,3.38
2023-03-26T21:57:43.524Z,4.10
2023-03-26T22:00:23.619Z,4.13
2023-03-26T22:03:08.423Z,3.65
2023-03-26T22:05:41.796Z,4.07
2023-03-26T22:08:20.307Z,4.40
2023-03-26T22:10:48.039Z,4.53
2023-03-26T22:13:14.903Z,4.00
2023-03-26T22:15:41.921Z,3.67
2023-03-26T22:18:08.830Z,4.03
2023-03-26T22:20:35.813Z,4.20
2023-03-26T22:23:03.297Z,4.03
2023-03-26T22:25:30.203Z,4.03
2023-03-26T22:27:57.629Z,4.65
2023-03-26T22:30:24.664Z,4.05
2023-03-26T22:32:51.878Z,4.03
2023-03-26T22:35:19.268Z,3.72
2023-03-26T22:37:46.285Z,3.97
2023-03-26T22:40:16.233Z,4.55
2023-03-26T22:42:43.094Z,3.90
2023-03-26T22:45:10.817Z,3.45
2023-03-26T22:47:38.281Z,3.85
2023-03-26T22:50:07.442Z,4.82
2023-03-26T22:52:36.492Z,3.58
2023-03-26T22:55:05.387Z,3.90
2023-03-26T22:57:32.326Z,3.90
2023-03-26T23:00:12.035Z,3.55
2023-03-26T23:02:39.935Z,3.55
2023-03-26T23:05:06.960Z,3.92
2023-03-26T23:07:34.050Z,4.38
2023-03-26T23:10:00.871Z,3.97
2023-03-26T23:12:27.731Z,4.95
2023-03-26T23:14:55.426Z,4.70
2023-03-26T23:17:22.426Z,3.92
2023-03-26T23:19:49.489Z,3.60
2023-03-26T23:22:17.387Z,2.95
2023-03-26T23:24:44.704Z,4.20
2023-03-26T23:27:12.113Z,4.57
2023-03-26T23:29:39.014Z,3.70
2023-03-26T23:32:24.391Z,3.92
2023-03-26T23:34:52.786Z,4.47
2023-03-26T23:37:23.319Z,3.55
2023-03-26T23:39:52.242Z,3.90
2023-03-26T23:42:28.406Z,4.40
2023-03-26T23:44:57.309Z,3.80
2023-03-26T23:47:24.526Z,3.67
2023-03-26T23:49:51.552Z,3.72
2023-03-26T23:52:18.846Z,4.88
2023-03-26T23:54:45.808Z,3.42
2023-03-26T23:57:12.924Z,4.47
2023-03-26T23:59:41.626Z,3.88
